sensor_id;sensor_type;location;lat;lon;timestamp;temperature;humidity
46732;DHT22;32477;51.474;5.696;2023-07-24T00:01:43;17.70;99.90
46732;DHT22;32477;51.474;5.696;2023-07-24T00:04:08;17.60;99.90
46732;DHT22;32477;51.474;5.696;2023-07-24T00:06:34;17.60;99.90
46732;DHT22;32477;51.474;5.696;2023-07-24T00:09:00;17.60;99.90
46732;DHT22;32477;51.474;5.696;2023-07-24T00:11:28;17.60;99.90
46732;DHT22;32477;51.474;5.696;2023-07-24T00:13:54;17.60;99.90
46732;DHT22;32477;51.474;5.696;2023-07-24T00:16:19;17.60;99.90
46732;DHT22;32477;51.474;5.696;2023-07-24T00:18:45;17.60;99.90
46732;DHT22;32477;51.474;5.696;2023-07-24T00:21:10;17.60;99.90
46732;DHT22;32477;51.474;5.696;2023-07-24T00:23:38;17.60;99.90
46732;DHT22;32477;51.474;5.696;2023-07-24T00:26:04;17.60;99.90
46732;DHT22;32477;51.474;5.696;2023-07-24T00:28:30;17.60;99.90
46732;DHT22;32477;51.474;5.696;2023-07-24T00:30:55;17.50;99.90
46732;DHT22;32477;51.474;5.696;2023-07-24T00:33:21;17.50;99.90
46732;DHT22;32477;51.474;5.696;2023-07-24T00:35:47;17.60;99.90
46732;DHT22;32477;51.474;5.696;2023-07-24T00:38:13;17.60;99.90
46732;DHT22;32477;51.474;5.696;2023-07-24T00:40:38;17.70;99.90
46732;DHT22;32477;51.474;5.696;2023-07-24T00:43:04;17.60;99.90
46732;DHT22;32477;51.474;5.696;2023-07-24T00:45:30;17.60;99.90
46732;DHT22;32477;51.474;5.696;2023-07-24T00:47:55;17.60;99.90
46732;DHT22;32477;51.474;5.696;2023-07-24T00:50:21;17.60;99.90
46732;DHT22;32477;51.474;5.696;2023-07-24T00:52:47;17.60;99.90
46732;DHT22;32477;51.474;5.696;2023-07-24T00:55:13;17.60;99.90
46732;DHT22;32477;51.474;5.696;2023-07-24T00:57:41;17.60;99.90
46732;DHT22;32477;51.474;5.696;2023-07-24T01:00:08;17.60;99.90
46732;DHT22;32477;51.474;5.696;2023-07-24T01:02:34;17.60;99.90
46732;DHT22;32477;51.474;5.696;2023-07-24T01:05:00;17.60;99.90
46732;DHT22;32477;51.474;5.696;2023-07-24T01:07:26;17.60;99.90
46732;DHT22;32477;51.474;5.696;2023-07-24T01:09:52;17.60;99.90
46732;DHT22;32477;51.474;5.696;2023-07-24T01:12:33;17.60;99.90
46732;DHT22;32477;51.474;5.696;2023-07-24T01:15:34;17.70;99.90
46732;DHT22;32477;51.474;5.696;2023-07-24T01:18:18;17.70;99.90
46732;DHT22;32477;51.474;5.696;2023-07-24T01:20:51;17.60;99.90
46732;DHT22;32477;51.474;5.696;2023-07-24T01:25:58;17.60;99.90
46732;DHT22;32477;51.474;5.696;2023-07-24T01:28:27;17.70;99.90
46732;DHT22;32477;51.474;5.696;2023-07-24T01:30:53;17.60;99.90
46732;DHT22;32477;51.474;5.696;2023-07-24T01:33:19;17.60;99.90
46732;DHT22;32477;51.474;5.696;2023-07-24T01:35:51;17.60;99.90
46732;DHT22;32477;51.474;5.696;2023-07-24T01:38:19;17.60;99.90
46732;DHT22;32477;51.474;5.696;2023-07-24T01:40:45;17.60;99.90
46732;DHT22;32477;51.474;5.696;2023-07-24T01:43:11;17.60;99.90
46732;DHT22;32477;51.474;5.696;2023-07-24T01:45:36;17.60;99.90
46732;DHT22;32477;51.474;5.696;2023-07-24T01:48:04;17.60;99.90
46732;DHT22;32477;51.474;5.696;2023-07-24T01:50:30;17.60;99.90
46732;DHT22;32477;51.474;5.696;2023-07-24T01:52:56;17.60;99.90
46732;DHT22;32477;51.474;5.696;2023-07-24T01:55:21;17.60;99.90
46732;DHT22;32477;51.474;5.696;2023-07-24T01:57:47;17.60;99.90
46732;DHT22;32477;51.474;5.696;2023-07-24T02:00:13;17.60;99.90
46732;DHT22;32477;51.474;5.696;2023-07-24T02:02:38;17.60;99.90
46732;DHT22;32477;51.474;5.696;2023-07-24T02:05:04;17.60;99.90
46732;DHT22;32477;51.474;5.696;2023-07-24T02:07:30;17.60;99.90
46732;DHT22;32477;51.474;5.696;2023-07-24T02:09:56;17.50;99.90
46732;DHT22;32477;51.474;5.696;2023-07-24T02:12:22;17.60;99.90
46732;DHT22;32477;51.474;5.696;2023-07-24T02:14:47;17.60;99.90
46732;DHT22;32477;51.474;5.696;2023-07-24T02:17:17;17.60;99.90
46732;DHT22;32477;51.474;5.696;2023-07-24T02:19:44;17.60;99.90
46732;DHT22;32477;51.474;5.696;2023-07-24T02:22:09;17.60;99.90
46732;DHT22;32477;51.474;5.696;2023-07-24T02:24:35;17.60;99.90
46732;DHT22;32477;51.474;5.696;2023-07-24T02:27:01;17.60;99.90
46732;DHT22;32477;51.474;5.696;2023-07-24T02:29:27;17.60;99.90
46732;DHT22;32477;51.474;5.696;2023-07-24T02:31:53;17.60;99.90
46732;DHT22;32477;51.474;5.696;2023-07-24T02:34:19;17.70;99.90
46732;DHT22;32477;51.474;5.696;2023-07-24T02:36:49;17.70;99.90
46732;DHT22;32477;51.474;5.696;2023-07-24T02:39:15;17.70;99.90
46732;DHT22;32477;51.474;5.696;2023-07-24T02:41:41;17.60;99.90
46732;DHT22;32477;51.474;5.696;2023-07-24T02:44:06;17.70;99.90
46732;DHT22;32477;51.474;5.696;2023-07-24T02:46:32;17.70;99.90
46732;DHT22;32477;51.474;5.696;2023-07-24T02:48:57;17.70;99.90
46732;DHT22;32477;51.474;5.696;2023-07-24T02:51:23;17.60;99.90
46732;DHT22;32477;51.474;5.696;2023-07-24T02:53:49;17.60;99.90
46732;DHT22;32477;51.474;5.696;2023-07-24T02:56:14;17.60;99.90
46732;DHT22;32477;51.474;5.696;2023-07-24T02:58:40;17.70;99.90
46732;DHT22;32477;51.474;5.696;2023-07-24T03:01:07;17.60;99.90
46732;DHT22;32477;51.474;5.696;2023-07-24T03:03:36;17.60;99.90
46732;DHT22;32477;51.474;5.696;2023-07-24T03:06:02;17.60;99.90
46732;DHT22;32477;51.474;5.696;2023-07-24T03:08:27;17.60;99.90
46732;DHT22;32477;51.474;5.696;2023-07-24T03:10:53;17.70;99.90
46732;DHT22;32477;51.474;5.696;2023-07-24T03:13:18;17.60;99.90
46732;DHT22;32477;51.474;5.696;2023-07-24T03:15:52;17.50;99.90
46732;DHT22;32477;51.474;5.696;2023-07-24T03:18:18;17.50;99.90
46732;DHT22;32477;51.474;5.696;2023-07-24T03:20:43;17.50;99.90
46732;DHT22;32477;51.474;5.696;2023-07-24T03:23:09;17.50;99.90
46732;DHT22;32477;51.474;5.696;2023-07-24T03:25:34;17.40;99.90
46732;DHT22;32477;51.474;5.696;2023-07-24T03:28:03;17.40;99.90
46732;DHT22;32477;51.474;5.696;2023-07-24T03:30:29;17.40;99.90
46732;DHT22;32477;51.474;5.696;2023-07-24T03:32:55;17.30;99.90
46732;DHT22;32477;51.474;5.696;2023-07-24T03:35:20;17.40;99.90
46732;DHT22;32477;51.474;5.696;2023-07-24T03:37:46;17.30;99.90
46732;DHT22;32477;51.474;5.696;2023-07-24T03:40:12;17.30;99.90
46732;DHT22;32477;51.474;5.696;2023-07-24T03:42:37;17.30;99.90
46732;DHT22;32477;51.474;5.696;2023-07-24T03:45:03;17.30;99.90
46732;DHT22;32477;51.474;5.696;2023-07-24T03:47:29;17.30;99.90
46732;DHT22;32477;51.474;5.696;2023-07-24T03:49:55;17.30;99.90
46732;DHT22;32477;51.474;5.696;2023-07-24T03:52:20;17.30;99.90
46732;DHT22;32477;51.474;5.696;2023-07-24T03:54:46;17.30;99.90
46732;DHT22;32477;51.474;5.696;2023-07-24T03:57:12;17.30;99.90
46732;DHT22;32477;51.474;5.696;2023-07-24T03:59:37;17.30;99.90
46732;DHT22;32477;51.474;5.696;2023-07-24T04:02:03;17.30;99.90
46732;DHT22;32477;51.474;5.696;2023-07-24T04:04:29;17.20;99.90
46732;DHT22;32477;51.474;5.696;2023-07-24T04:06:55;17.20;99.90
46732;DHT22;32477;51.474;5.696;2023-07-24T04:09:20;17.10;99.90
46732;DHT22;32477;51.474;5.696;2023-07-24T04:11:46;17.10;99.90
46732;DHT22;32477;51.474;5.696;2023-07-24T04:14:11;17.00;99.90
46732;DHT22;32477;51.474;5.696;2023-07-24T04:16:37;17.00;99.90
46732;DHT22;32477;51.474;5.696;2023-07-24T04:19:03;17.00;99.90
46732;DHT22;32477;51.474;5.696;2023-07-24T04:21:29;16.90;99.90
46732;DHT22;32477;51.474;5.696;2023-07-24T04:23:54;16.90;99.90
46732;DHT22;32477;51.474;5.696;2023-07-24T04:26:20;16.90;99.90
46732;DHT22;32477;51.474;5.696;2023-07-24T04:28:46;16.90;99.90
46732;DHT22;32477;51.474;5.696;2023-07-24T04:31:11;16.90;99.90
46732;DHT22;32477;51.474;5.696;2023-07-24T04:33:37;17.00;99.90
46732;DHT22;32477;51.474;5.696;2023-07-24T04:36:03;16.90;99.90
46732;DHT22;32477;51.474;5.696;2023-07-24T04:38:29;16.90;99.90
46732;DHT22;32477;51.474;5.696;2023-07-24T04:40:55;16.90;99.90
46732;DHT22;32477;51.474;5.696;2023-07-24T04:43:20;16.90;99.90
46732;DHT22;32477;51.474;5.696;2023-07-24T04:45:46;16.90;99.90
46732;DHT22;32477;51.474;5.696;2023-07-24T04:48:11;16.90;99.90
46732;DHT22;32477;51.474;5.696;2023-07-24T04:50:37;16.80;99.90
46732;DHT22;32477;51.474;5.696;2023-07-24T04:53:02;16.70;99.90
46732;DHT22;32477;51.474;5.696;2023-07-24T04:55:28;16.70;99.90
46732;DHT22;32477;51.474;5.696;2023-07-24T04:57:54;16.70;99.90
46732;DHT22;32477;51.474;5.696;2023-07-24T05:00:19;16.60;99.90
46732;DHT22;32477;51.474;5.696;2023-07-24T05:02:45;16.60;99.90
46732;DHT22;32477;51.474;5.696;2023-07-24T05:05:10;16.60;99.90
46732;DHT22;32477;51.474;5.696;2023-07-24T05:07:36;16.60;99.90
46732;DHT22;32477;51.474;5.696;2023-07-24T05:10:04;16.60;99.90
46732;DHT22;32477;51.474;5.696;2023-07-24T05:12:30;16.60;99.90
46732;DHT22;32477;51.474;5.696;2023-07-24T05:14:56;16.60;99.90
46732;DHT22;32477;51.474;5.696;2023-07-24T05:17:21;16.60;99.90
46732;DHT22;32477;51.474;5.696;2023-07-24T05:19:47;16.60;99.90
46732;DHT22;32477;51.474;5.696;2023-07-24T05:22:12;16.60;99.90
46732;DHT22;32477;51.474;5.696;2023-07-24T05:24:38;16.70;99.90
46732;DHT22;32477;51.474;5.696;2023-07-24T05:27:04;16.70;99.90
46732;DHT22;32477;51.474;5.696;2023-07-24T05:29:30;16.70;99.90
46732;DHT22;32477;51.474;5.696;2023-07-24T05:31:56;16.80;99.90
46732;DHT22;32477;51.474;5.696;2023-07-24T05:34:21;16.90;99.90
46732;DHT22;32477;51.474;5.696;2023-07-24T05:36:47;17.00;99.90
46732;DHT22;32477;51.474;5.696;2023-07-24T05:39:12;17.10;99.90
46732;DHT22;32477;51.474;5.696;2023-07-24T05:41:39;17.10;99.90
46732;DHT22;32477;51.474;5.696;2023-07-24T05:44:07;17.10;99.90
46732;DHT22;32477;51.474;5.696;2023-07-24T05:46:33;17.00;99.90
46732;DHT22;32477;51.474;5.696;2023-07-24T05:48:58;17.00;99.90
46732;DHT22;32477;51.474;5.696;2023-07-24T05:51:26;17.00;99.90
46732;DHT22;32477;51.474;5.696;2023-07-24T05:53:52;16.90;99.90
46732;DHT22;32477;51.474;5.696;2023-07-24T05:56:18;16.90;99.90
46732;DHT22;32477;51.474;5.696;2023-07-24T05:58:43;16.90;99.90
46732;DHT22;32477;51.474;5.696;2023-07-24T06:01:09;16.90;99.90
46732;DHT22;32477;51.474;5.696;2023-07-24T06:03:36;16.90;99.90
46732;DHT22;32477;51.474;5.696;2023-07-24T06:06:02;16.90;99.90
46732;DHT22;32477;51.474;5.696;2023-07-24T06:08:27;17.00;99.90
46732;DHT22;32477;51.474;5.696;2023-07-24T06:10:53;17.00;99.90
46732;DHT22;32477;51.474;5.696;2023-07-24T06:13:19;17.10;99.90
46732;DHT22;32477;51.474;5.696;2023-07-24T06:15:47;17.10;99.90
46732;DHT22;32477;51.474;5.696;2023-07-24T06:18:13;17.20;99.90
46732;DHT22;32477;51.474;5.696;2023-07-24T06:20:39;17.40;99.90
46732;DHT22;32477;51.474;5.696;2023-07-24T06:23:05;17.60;99.90
46732;DHT22;32477;51.474;5.696;2023-07-24T06:25:31;17.80;99.90
46732;DHT22;32477;51.474;5.696;2023-07-24T06:27:57;18.00;99.90
46732;DHT22;32477;51.474;5.696;2023-07-24T06:30:23;18.30;99.90
46732;DHT22;32477;51.474;5.696;2023-07-24T06:32:48;18.40;99.90
46732;DHT22;32477;51.474;5.696;2023-07-24T06:35:14;18.30;99.90
46732;DHT22;32477;51.474;5.696;2023-07-24T06:37:40;18.40;99.90
46732;DHT22;32477;51.474;5.696;2023-07-24T06:40:08;18.40;99.90
46732;DHT22;32477;51.474;5.696;2023-07-24T06:42:34;18.40;99.90
46732;DHT22;32477;51.474;5.696;2023-07-24T06:45:00;18.40;99.90
46732;DHT22;32477;51.474;5.696;2023-07-24T06:47:26;18.40;99.90
46732;DHT22;32477;51.474;5.696;2023-07-24T06:49:51;18.60;99.90
46732;DHT22;32477;51.474;5.696;2023-07-24T06:52:17;18.60;99.90
46732;DHT22;32477;51.474;5.696;2023-07-24T06:54:42;18.60;99.90
46732;DHT22;32477;51.474;5.696;2023-07-24T06:57:08;18.70;99.90
46732;DHT22;32477;51.474;5.696;2023-07-24T06:59:34;18.80;99.90
46732;DHT22;32477;51.474;5.696;2023-07-24T07:01:59;18.80;99.90
46732;DHT22;32477;51.474;5.696;2023-07-24T07:04:25;18.90;99.90
46732;DHT22;32477;51.474;5.696;2023-07-24T07:06:50;18.90;99.90
46732;DHT22;32477;51.474;5.696;2023-07-24T07:09:16;18.80;99.90
46732;DHT22;32477;51.474;5.696;2023-07-24T07:11:41;18.60;99.90
46732;DHT22;32477;51.474;5.696;2023-07-24T07:14:09;18.50;99.90
46732;DHT22;32477;51.474;5.696;2023-07-24T07:16:35;18.40;99.90
46732;DHT22;32477;51.474;5.696;2023-07-24T07:19:00;18.40;99.90
46732;DHT22;32477;51.474;5.696;2023-07-24T07:21:26;18.40;99.90
46732;DHT22;32477;51.474;5.696;2023-07-24T07:23:52;18.50;99.90
46732;DHT22;32477;51.474;5.696;2023-07-24T07:26:17;18.60;99.90
46732;DHT22;32477;51.474;5.696;2023-07-24T07:28:43;19.00;99.90
46732;DHT22;32477;51.474;5.696;2023-07-24T07:31:10;19.50;99.90
46732;DHT22;32477;51.474;5.696;2023-07-24T07:33:36;19.70;99.90
46732;DHT22;32477;51.474;5.696;2023-07-24T07:36:01;19.80;99.90
46732;DHT22;32477;51.474;5.696;2023-07-24T07:38:29;19.80;99.90
46732;DHT22;32477;51.474;5.696;2023-07-24T07:40:54;19.80;99.90
46732;DHT22;32477;51.474;5.696;2023-07-24T07:43:20;19.70;99.90
46732;DHT22;32477;51.474;5.696;2023-07-24T07:45:46;19.60;99.90
46732;DHT22;32477;51.474;5.696;2023-07-24T07:48:12;19.70;99.90
46732;DHT22;32477;51.474;5.696;2023-07-24T07:50:38;19.90;99.90
46732;DHT22;32477;51.474;5.696;2023-07-24T07:53:03;20.10;99.90
46732;DHT22;32477;51.474;5.696;2023-07-24T07:55:29;20.10;99.90
46732;DHT22;32477;51.474;5.696;2023-07-24T07:57:54;20.30;99.90
46732;DHT22;32477;51.474;5.696;2023-07-24T08:00:20;20.30;99.90
46732;DHT22;32477;51.474;5.696;2023-07-24T08:02:46;20.40;99.90
46732;DHT22;32477;51.474;5.696;2023-07-24T08:05:11;20.50;99.90
46732;DHT22;32477;51.474;5.696;2023-07-24T08:07:37;20.60;99.90
46732;DHT22;32477;51.474;5.696;2023-07-24T08:10:03;20.60;99.90
46732;DHT22;32477;51.474;5.696;2023-07-24T08:12:29;20.60;99.90
46732;DHT22;32477;51.474;5.696;2023-07-24T08:14:56;20.60;99.90
46732;DHT22;32477;51.474;5.696;2023-07-24T08:17:21;20.60;99.90
46732;DHT22;32477;51.474;5.696;2023-07-24T08:19:47;21.10;99.90
46732;DHT22;32477;51.474;5.696;2023-07-24T08:22:12;21.60;99.90
46732;DHT22;32477;51.474;5.696;2023-07-24T08:24:38;21.80;99.90
46732;DHT22;32477;51.474;5.696;2023-07-24T08:27:04;21.90;99.90
46732;DHT22;32477;51.474;5.696;2023-07-24T08:29:29;22.20;99.90
46732;DHT22;32477;51.474;5.696;2023-07-24T08:31:55;22.40;99.90
46732;DHT22;32477;51.474;5.696;2023-07-24T08:34:21;22.60;99.90
46732;DHT22;32477;51.474;5.696;2023-07-24T08:36:46;22.20;99.90
46732;DHT22;32477;51.474;5.696;2023-07-24T08:39:12;21.90;99.90
46732;DHT22;32477;51.474;5.696;2023-07-24T08:41:38;21.80;99.90
46732;DHT22;32477;51.474;5.696;2023-07-24T08:44:09;21.50;99.90
46732;DHT22;32477;51.474;5.696;2023-07-24T08:46:36;21.10;99.90
46732;DHT22;32477;51.474;5.696;2023-07-24T08:49:03;20.70;99.90
46732;DHT22;32477;51.474;5.696;2023-07-24T08:51:29;20.60;99.90
46732;DHT22;32477;51.474;5.696;2023-07-24T08:53:57;20.90;99.90
46732;DHT22;32477;51.474;5.696;2023-07-24T08:56:23;21.30;99.90
46732;DHT22;32477;51.474;5.696;2023-07-24T08:58:49;21.80;99.90
46732;DHT22;32477;51.474;5.696;2023-07-24T09:01:14;21.80;99.90
46732;DHT22;32477;51.474;5.696;2023-07-24T09:03:40;21.60;99.90
46732;DHT22;32477;51.474;5.696;2023-07-24T09:06:06;22.20;99.90
46732;DHT22;32477;51.474;5.696;2023-07-24T09:08:38;21.80;99.90
46732;DHT22;32477;51.474;5.696;2023-07-24T09:11:05;21.70;99.90
46732;DHT22;32477;51.474;5.696;2023-07-24T09:13:31;21.40;99.90
46732;DHT22;32477;51.474;5.696;2023-07-24T09:15:57;21.10;99.90
46732;DHT22;32477;51.474;5.696;2023-07-24T09:18:24;20.80;99.90
46732;DHT22;32477;51.474;5.696;2023-07-24T09:20:50;20.80;99.90
46732;DHT22;32477;51.474;5.696;2023-07-24T09:23:28;21.10;99.90
46732;DHT22;32477;51.474;5.696;2023-07-24T09:25:54;22.00;99.90
46732;DHT22;32477;51.474;5.696;2023-07-24T09:28:19;22.30;99.90
46732;DHT22;32477;51.474;5.696;2023-07-24T09:30:54;22.90;99.90
46732;DHT22;32477;51.474;5.696;2023-07-24T09:33:21;24.10;99.90
46732;DHT22;32477;51.474;5.696;2023-07-24T09:35:57;24.80;99.90
46732;DHT22;32477;51.474;5.696;2023-07-24T09:38:23;26.20;99.90
46732;DHT22;32477;51.474;5.696;2023-07-24T09:40:49;27.20;99.90
46732;DHT22;32477;51.474;5.696;2023-07-24T09:43:26;27.20;99.90
46732;DHT22;32477;51.474;5.696;2023-07-24T09:45:53;26.50;99.90
46732;DHT22;32477;51.474;5.696;2023-07-24T09:48:21;25.30;99.90
46732;DHT22;32477;51.474;5.696;2023-07-24T09:50:48;24.00;99.90
46732;DHT22;32477;51.474;5.696;2023-07-24T09:55:58;22.60;99.90
46732;DHT22;32477;51.474;5.696;2023-07-24T09:58:25;22.30;99.90
46732;DHT22;32477;51.474;5.696;2023-07-24T10:00:52;22.00;99.90
46732;DHT22;32477;51.474;5.696;2023-07-24T10:03:18;21.80;99.90
46732;DHT22;32477;51.474;5.696;2023-07-24T10:05:46;21.60;99.90
46732;DHT22;32477;51.474;5.696;2023-07-24T10:08:12;21.50;99.90
46732;DHT22;32477;51.474;5.696;2023-07-24T10:10:38;21.20;99.90
46732;DHT22;32477;51.474;5.696;2023-07-24T10:13:06;20.90;99.90
46732;DHT22;32477;51.474;5.696;2023-07-24T10:15:32;20.70;99.90
46732;DHT22;32477;51.474;5.696;2023-07-24T10:18:02;20.50;99.90
46732;DHT22;32477;51.474;5.696;2023-07-24T10:20:33;20.40;99.90
46732;DHT22;32477;51.474;5.696;2023-07-24T10:23:01;20.20;99.90
46732;DHT22;32477;51.474;5.696;2023-07-24T10:25:32;20.00;99.90
46732;DHT22;32477;51.474;5.696;2023-07-24T10:28:04;19.90;99.90
46732;DHT22;32477;51.474;5.696;2023-07-24T10:30:39;19.80;99.90
46732;DHT22;32477;51.474;5.696;2023-07-24T10:35:38;19.50;99.90
46732;DHT22;32477;51.474;5.696;2023-07-24T10:38:03;19.50;99.90
46732;DHT22;32477;51.474;5.696;2023-07-24T10:40:29;19.40;99.90
46732;DHT22;32477;51.474;5.696;2023-07-24T10:43:12;19.40;99.90
46732;DHT22;32477;51.474;5.696;2023-07-24T10:48:20;19.40;99.90
46732;DHT22;32477;51.474;5.696;2023-07-24T10:50:50;19.40;99.90
46732;DHT22;32477;51.474;5.696;2023-07-24T10:53:20;19.30;99.90
46732;DHT22;32477;51.474;5.696;2023-07-24T10:55:47;19.30;99.90
46732;DHT22;32477;51.474;5.696;2023-07-24T10:58:14;19.20;99.90
46732;DHT22;32477;51.474;5.696;2023-07-24T11:00:40;19.10;99.90
46732;DHT22;32477;51.474;5.696;2023-07-24T11:03:13;19.20;99.90
46732;DHT22;32477;51.474;5.696;2023-07-24T11:05:40;19.40;99.90
46732;DHT22;32477;51.474;5.696;2023-07-24T11:08:24;19.60;99.90
46732;DHT22;32477;51.474;5.696;2023-07-24T11:10:55;20.10;99.90
46732;DHT22;32477;51.474;5.696;2023-07-24T11:13:25;20.50;99.90
46732;DHT22;32477;51.474;5.696;2023-07-24T11:15:52;20.70;99.90
46732;DHT22;32477;51.474;5.696;2023-07-24T11:18:19;20.90;99.90
46732;DHT22;32477;51.474;5.696;2023-07-24T11:20:55;20.90;99.90
46732;DHT22;32477;51.474;5.696;2023-07-24T11:23:22;21.70;99.90
46732;DHT22;32477;51.474;5.696;2023-07-24T11:25:50;22.90;99.90
46732;DHT22;32477;51.474;5.696;2023-07-24T11:28:16;23.30;99.90
46732;DHT22;32477;51.474;5.696;2023-07-24T11:30:42;23.20;99.90
46732;DHT22;32477;51.474;5.696;2023-07-24T11:33:11;22.90;99.90
46732;DHT22;32477;51.474;5.696;2023-07-24T11:35:38;22.50;99.90
46732;DHT22;32477;51.474;5.696;2023-07-24T11:38:06;22.40;99.90
46732;DHT22;32477;51.474;5.696;2023-07-24T11:43:05;22.30;99.90
46732;DHT22;32477;51.474;5.696;2023-07-24T11:45:31;22.10;99.90
46732;DHT22;32477;51.474;5.696;2023-07-24T11:48:09;21.80;99.90
46732;DHT22;32477;51.474;5.696;2023-07-24T11:50:42;21.30;99.90
46732;DHT22;32477;51.474;5.696;2023-07-24T11:53:22;20.90;99.90
46732;DHT22;32477;51.474;5.696;2023-07-24T11:55:49;20.70;99.90
46732;DHT22;32477;51.474;5.696;2023-07-24T11:58:16;20.60;99.90
46732;DHT22;32477;51.474;5.696;2023-07-24T12:00:42;20.80;99.90
46732;DHT22;32477;51.474;5.696;2023-07-24T12:03:08;20.80;99.90
46732;DHT22;32477;51.474;5.696;2023-07-24T12:05:43;20.80;99.90
46732;DHT22;32477;51.474;5.696;2023-07-24T12:08:10;20.80;99.90
46732;DHT22;32477;51.474;5.696;2023-07-24T12:10:37;20.70;99.90
46732;DHT22;32477;51.474;5.696;2023-07-24T12:13:04;20.90;99.90
46732;DHT22;32477;51.474;5.696;2023-07-24T12:15:30;21.00;99.90
46732;DHT22;32477;51.474;5.696;2023-07-24T12:17:55;21.00;99.90
46732;DHT22;32477;51.474;5.696;2023-07-24T12:20:22;21.10;99.90
46732;DHT22;32477;51.474;5.696;2023-07-24T12:22:48;21.50;99.90
46732;DHT22;32477;51.474;5.696;2023-07-24T12:25:14;21.80;99.90
46732;DHT22;32477;51.474;5.696;2023-07-24T12:27:41;22.30;99.90
46732;DHT22;32477;51.474;5.696;2023-07-24T12:30:08;22.60;99.90
46732;DHT22;32477;51.474;5.696;2023-07-24T12:32:34;22.60;99.90
46732;DHT22;32477;51.474;5.696;2023-07-24T12:35:00;22.70;99.90
46732;DHT22;32477;51.474;5.696;2023-07-24T12:37:26;22.80;99.90
46732;DHT22;32477;51.474;5.696;2023-07-24T12:39:52;22.70;99.90
46732;DHT22;32477;51.474;5.696;2023-07-24T12:42:17;23.00;99.90
46732;DHT22;32477;51.474;5.696;2023-07-24T12:44:43;23.10;99.90
46732;DHT22;32477;51.474;5.696;2023-07-24T12:47:10;23.10;99.90
46732;DHT22;32477;51.474;5.696;2023-07-24T12:49:37;23.50;99.90
46732;DHT22;32477;51.474;5.696;2023-07-24T12:52:03;23.70;99.90
46732;DHT22;32477;51.474;5.696;2023-07-24T12:54:29;23.90;99.90
46732;DHT22;32477;51.474;5.696;2023-07-24T12:56:55;23.70;99.90
46732;DHT22;32477;51.474;5.696;2023-07-24T12:59:20;23.60;99.90
46732;DHT22;32477;51.474;5.696;2023-07-24T13:01:46;23.40;99.90
46732;DHT22;32477;51.474;5.696;2023-07-24T13:04:12;23.50;99.90
46732;DHT22;32477;51.474;5.696;2023-07-24T13:06:38;23.60;99.90
46732;DHT22;32477;51.474;5.696;2023-07-24T13:09:03;23.40;99.90
46732;DHT22;32477;51.474;5.696;2023-07-24T13:11:30;23.00;99.90
46732;DHT22;32477;51.474;5.696;2023-07-24T13:13:56;22.60;99.90
46732;DHT22;32477;51.474;5.696;2023-07-24T13:16:22;22.30;99.90
46732;DHT22;32477;51.474;5.696;2023-07-24T13:18:48;22.40;99.90
46732;DHT22;32477;51.474;5.696;2023-07-24T13:21:14;22.70;99.90
46732;DHT22;32477;51.474;5.696;2023-07-24T13:23:42;23.10;99.90
46732;DHT22;32477;51.474;5.696;2023-07-24T13:26:08;23.40;99.90
46732;DHT22;32477;51.474;5.696;2023-07-24T13:28:36;23.60;99.90
46732;DHT22;32477;51.474;5.696;2023-07-24T13:31:13;23.90;99.90
46732;DHT22;32477;51.474;5.696;2023-07-24T13:33:38;23.80;99.90
46732;DHT22;32477;51.474;5.696;2023-07-24T13:36:04;23.60;99.90
46732;DHT22;32477;51.474;5.696;2023-07-24T13:38:30;23.40;99.90
46732;DHT22;32477;51.474;5.696;2023-07-24T13:40:55;23.20;99.90
46732;DHT22;32477;51.474;5.696;2023-07-24T13:43:21;23.10;99.90
46732;DHT22;32477;51.474;5.696;2023-07-24T13:45:47;23.30;99.90
46732;DHT22;32477;51.474;5.696;2023-07-24T13:48:12;23.60;99.90
46732;DHT22;32477;51.474;5.696;2023-07-24T13:50:38;23.80;99.90
46732;DHT22;32477;51.474;5.696;2023-07-24T13:53:03;24.50;99.90
46732;DHT22;32477;51.474;5.696;2023-07-24T13:55:29;25.60;99.90
46732;DHT22;32477;51.474;5.696;2023-07-24T13:57:56;25.50;99.90
46732;DHT22;32477;51.474;5.696;2023-07-24T14:00:21;24.80;99.90
46732;DHT22;32477;51.474;5.696;2023-07-24T14:02:47;24.20;99.90
46732;DHT22;32477;51.474;5.696;2023-07-24T14:05:12;23.40;99.90
46732;DHT22;32477;51.474;5.696;2023-07-24T14:07:38;22.90;99.90
46732;DHT22;32477;51.474;5.696;2023-07-24T14:10:04;22.40;99.90
46732;DHT22;32477;51.474;5.696;2023-07-24T14:12:29;22.10;99.90
46732;DHT22;32477;51.474;5.696;2023-07-24T14:14:55;21.80;99.90
46732;DHT22;32477;51.474;5.696;2023-07-24T14:17:21;21.60;99.90
46732;DHT22;32477;51.474;5.696;2023-07-24T14:19:46;21.30;99.90
46732;DHT22;32477;51.474;5.696;2023-07-24T14:22:12;21.10;99.90
46732;DHT22;32477;51.474;5.696;2023-07-24T14:24:37;20.90;99.90
46732;DHT22;32477;51.474;5.696;2023-07-24T14:27:03;20.70;99.90
46732;DHT22;32477;51.474;5.696;2023-07-24T14:29:29;20.20;99.90
46732;DHT22;32477;51.474;5.696;2023-07-24T14:31:54;19.70;99.90
46732;DHT22;32477;51.474;5.696;2023-07-24T14:34:20;19.10;99.90
46732;DHT22;32477;51.474;5.696;2023-07-24T14:36:45;18.50;99.90
46732;DHT22;32477;51.474;5.696;2023-07-24T14:39:11;18.00;99.90
46732;DHT22;32477;51.474;5.696;2023-07-24T14:41:36;17.80;99.90
46732;DHT22;32477;51.474;5.696;2023-07-24T14:44:02;17.50;99.90
46732;DHT22;32477;51.474;5.696;2023-07-24T14:46:28;17.50;99.90
46732;DHT22;32477;51.474;5.696;2023-07-24T14:48:53;17.70;99.90
46732;DHT22;32477;51.474;5.696;2023-07-24T14:51:19;18.10;99.90
46732;DHT22;32477;51.474;5.696;2023-07-24T14:53:45;18.60;99.90
46732;DHT22;32477;51.474;5.696;2023-07-24T14:56:10;19.00;99.90
46732;DHT22;32477;51.474;5.696;2023-07-24T14:58:36;19.30;99.90
46732;DHT22;32477;51.474;5.696;2023-07-24T15:01:01;19.60;99.90
46732;DHT22;32477;51.474;5.696;2023-07-24T15:03:27;19.80;99.90
46732;DHT22;32477;51.474;5.696;2023-07-24T15:05:52;20.10;99.90
46732;DHT22;32477;51.474;5.696;2023-07-24T15:08:18;20.40;99.90
46732;DHT22;32477;51.474;5.696;2023-07-24T15:10:44;20.60;99.90
46732;DHT22;32477;51.474;5.696;2023-07-24T15:13:10;20.40;99.90
46732;DHT22;32477;51.474;5.696;2023-07-24T15:15:35;20.20;99.90
46732;DHT22;32477;51.474;5.696;2023-07-24T15:18:01;20.30;99.90
46732;DHT22;32477;51.474;5.696;2023-07-24T15:20:27;20.60;99.90
46732;DHT22;32477;51.474;5.696;2023-07-24T15:22:52;21.00;99.90
46732;DHT22;32477;51.474;5.696;2023-07-24T15:25:21;21.20;99.90
46732;DHT22;32477;51.474;5.696;2023-07-24T15:27:46;21.20;99.90
46732;DHT22;32477;51.474;5.696;2023-07-24T15:30:12;21.20;99.90
46732;DHT22;32477;51.474;5.696;2023-07-24T15:32:38;20.90;99.90
46732;DHT22;32477;51.474;5.696;2023-07-24T15:35:04;20.80;99.90
46732;DHT22;32477;51.474;5.696;2023-07-24T15:37:30;20.80;99.90
46732;DHT22;32477;51.474;5.696;2023-07-24T15:39:57;20.80;99.90